sensor_id;sensor_type;location;lat;lon;timestamp;temperature;humidity
75899;DHT22;64576;50.460;4.866;2023-04-30T00:01:34;6.45;99.99
75899;DHT22;64576;50.460;4.866;2023-04-30T00:03:59;6.65;99.99
75899;DHT22;64576;50.460;4.866;2023-04-30T00:06:24;6.85;99.99
75899;DHT22;64576;50.460;4.866;2023-04-30T00:08:50;6.94;99.99
75899;DHT22;64576;50.460;4.866;2023-04-30T00:11:15;6.79;99.99
75899;DHT22;64576;50.460;4.866;2023-04-30T00:13:41;6.58;99.99
75899;DHT22;64576;50.460;4.866;2023-04-30T00:16:07;6.37;99.99
75899;DHT22;64576;50.460;4.866;2023-04-30T00:18:32;6.25;99.99
75899;DHT22;64576;50.460;4.866;2023-04-30T00:20:58;6.24;99.99
75899;DHT22;64576;50.460;4.866;2023-04-30T00:23:23;5.96;99.99
75899;DHT22;64576;50.460;4.866;2023-04-30T00:25:48;5.87;99.99
75899;DHT22;64576;50.460;4.866;2023-04-30T00:28:14;5.82;99.99
75899;DHT22;64576;50.460;4.866;2023-04-30T00:30:39;5.85;99.99
75899;DHT22;64576;50.460;4.866;2023-04-30T00:33:04;5.86;99.99
75899;DHT22;64576;50.460;4.866;2023-04-30T00:35:30;6.20;99.99
75899;DHT22;64576;50.460;4.866;2023-04-30T00:37:55;6.48;99.99
75899;DHT22;64576;50.460;4.866;2023-04-30T00:40:21;6.66;99.99
75899;DHT22;64576;50.460;4.866;2023-04-30T00:42:46;6.56;99.99
75899;DHT22;64576;50.460;4.866;2023-04-30T00:45:13;6.41;99.99
75899;DHT22;64576;50.460;4.866;2023-04-30T00:47:39;6.21;99.99
75899;DHT22;64576;50.460;4.866;2023-04-30T00:50:05;6.17;99.99
75899;DHT22;64576;50.460;4.866;2023-04-30T00:52:31;6.14;99.99
75899;DHT22;64576;50.460;4.866;2023-04-30T00:54:56;6.18;99.99
75899;DHT22;64576;50.460;4.866;2023-04-30T00:57:22;6.49;99.99
75899;DHT22;64576;50.460;4.866;2023-04-30T00:59:48;6.45;99.99
75899;DHT22;64576;50.460;4.866;2023-04-30T01:02:14;6.48;99.99
75899;DHT22;64576;50.460;4.866;2023-04-30T01:04:39;6.24;99.99
75899;DHT22;64576;50.460;4.866;2023-04-30T01:07:05;6.22;99.99
75899;DHT22;64576;50.460;4.866;2023-04-30T01:09:31;6.16;99.99
75899;DHT22;64576;50.460;4.866;2023-04-30T01:15:02;6.13;99.99
75899;DHT22;64576;50.460;4.866;2023-04-30T01:17:37;6.22;99.99
75899;DHT22;64576;50.460;4.866;2023-04-30T01:20:06;6.25;99.99
75899;DHT22;64576;50.460;4.866;2023-04-30T01:30:23;6.34;99.99
75899;DHT22;64576;50.460;4.866;2023-04-30T01:32:49;6.30;99.99
75899;DHT22;64576;50.460;4.866;2023-04-30T01:35:14;6.41;99.99
75899;DHT22;64576;50.460;4.866;2023-04-30T01:37:56;6.22;99.99
75899;DHT22;64576;50.460;4.866;2023-04-30T01:40:41;6.41;99.99
75899;DHT22;64576;50.460;4.866;2023-04-30T01:46:00;6.31;99.99
75899;DHT22;64576;50.460;4.866;2023-04-30T01:51:19;6.24;99.99
75899;DHT22;64576;50.460;4.866;2023-04-30T01:53:49;6.46;99.99
75899;DHT22;64576;50.460;4.866;2023-04-30T01:56:29;6.45;99.99
75899;DHT22;64576;50.460;4.866;2023-04-30T01:58:55;6.27;99.99
75899;DHT22;64576;50.460;4.866;2023-04-30T02:01:29;6.37;99.99
75899;DHT22;64576;50.460;4.866;2023-04-30T02:03:55;6.44;99.99
75899;DHT22;64576;50.460;4.866;2023-04-30T02:06:22;6.46;99.99
75899;DHT22;64576;50.460;4.866;2023-04-30T02:08:52;6.44;99.99
75899;DHT22;64576;50.460;4.866;2023-04-30T02:11:18;6.44;99.99
75899;DHT22;64576;50.460;4.866;2023-04-30T02:13:43;6.31;99.99
75899;DHT22;64576;50.460;4.866;2023-04-30T02:16:08;6.18;99.99
75899;DHT22;64576;50.460;4.866;2023-04-30T02:18:34;5.92;99.99
75899;DHT22;64576;50.460;4.866;2023-04-30T02:21:00;5.77;99.99
75899;DHT22;64576;50.460;4.866;2023-04-30T02:23:25;5.60;99.99
75899;DHT22;64576;50.460;4.866;2023-04-30T02:25:51;5.85;99.99
75899;DHT22;64576;50.460;4.866;2023-04-30T02:28:16;6.11;99.99
75899;DHT22;64576;50.460;4.866;2023-04-30T02:30:41;6.32;99.99
75899;DHT22;64576;50.460;4.866;2023-04-30T02:33:07;6.34;99.99
75899;DHT22;64576;50.460;4.866;2023-04-30T02:35:32;6.20;99.99
75899;DHT22;64576;50.460;4.866;2023-04-30T02:37:58;6.01;99.99
75899;DHT22;64576;50.460;4.866;2023-04-30T02:40:23;5.96;99.99
75899;DHT22;64576;50.460;4.866;2023-04-30T02:42:48;6.06;99.99
75899;DHT22;64576;50.460;4.866;2023-04-30T02:45:14;6.10;99.99
75899;DHT22;64576;50.460;4.866;2023-04-30T02:47:39;6.16;99.99
75899;DHT22;64576;50.460;4.866;2023-04-30T02:50:05;5.93;99.99
75899;DHT22;64576;50.460;4.866;2023-04-30T02:52:31;5.74;99.99
75899;DHT22;64576;50.460;4.866;2023-04-30T02:54:56;5.77;99.99
75899;DHT22;64576;50.460;4.866;2023-04-30T02:57:21;5.74;99.99
75899;DHT22;64576;50.460;4.866;2023-04-30T02:59:47;5.67;99.99
75899;DHT22;64576;50.460;4.866;2023-04-30T03:02:12;5.44;99.99
75899;DHT22;64576;50.460;4.866;2023-04-30T03:04:38;5.60;99.99
75899;DHT22;64576;50.460;4.866;2023-04-30T03:07:03;5.62;99.99
75899;DHT22;64576;50.460;4.866;2023-04-30T03:09:30;5.45;99.99
75899;DHT22;64576;50.460;4.866;2023-04-30T03:11:56;5.62;99.99
75899;DHT22;64576;50.460;4.866;2023-04-30T03:14:21;5.65;99.99
75899;DHT22;64576;50.460;4.866;2023-04-30T03:16:47;5.72;99.99
75899;DHT22;64576;50.460;4.866;2023-04-30T03:19:13;5.73;99.99
75899;DHT22;64576;50.460;4.866;2023-04-30T03:21:38;5.87;99.99
75899;DHT22;64576;50.460;4.866;2023-04-30T03:24:04;5.92;99.99
75899;DHT22;64576;50.460;4.866;2023-04-30T03:26:30;5.80;99.99
75899;DHT22;64576;50.460;4.866;2023-04-30T03:28:55;5.80;99.99
75899;DHT22;64576;50.460;4.866;2023-04-30T03:31:20;5.83;99.99
75899;DHT22;64576;50.460;4.866;2023-04-30T03:33:46;5.56;99.99
75899;DHT22;64576;50.460;4.866;2023-04-30T03:36:11;5.46;99.99
75899;DHT22;64576;50.460;4.866;2023-04-30T03:38:37;5.39;99.99
75899;DHT22;64576;50.460;4.866;2023-04-30T03:41:02;5.48;99.99
75899;DHT22;64576;50.460;4.866;2023-04-30T03:43:28;5.51;99.99
75899;DHT22;64576;50.460;4.866;2023-04-30T03:45:53;5.30;99.99
75899;DHT22;64576;50.460;4.866;2023-04-30T03:48:19;5.20;99.99
75899;DHT22;64576;50.460;4.866;2023-04-30T03:50:44;5.10;99.99
75899;DHT22;64576;50.460;4.866;2023-04-30T03:53:10;5.27;99.99
75899;DHT22;64576;50.460;4.866;2023-04-30T03:55:36;5.23;99.99
75899;DHT22;64576;50.460;4.866;2023-04-30T03:58:01;5.28;99.99
75899;DHT22;64576;50.460;4.866;2023-04-30T04:00:27;5.30;99.99
75899;DHT22;64576;50.460;4.866;2023-04-30T04:02:53;5.67;99.99
75899;DHT22;64576;50.460;4.866;2023-04-30T04:05:19;5.62;99.99
75899;DHT22;64576;50.460;4.866;2023-04-30T04:07:44;5.63;99.99
75899;DHT22;64576;50.460;4.866;2023-04-30T04:10:09;5.67;99.99
75899;DHT22;64576;50.460;4.866;2023-04-30T04:12:35;5.60;99.99
75899;DHT22;64576;50.460;4.866;2023-04-30T04:15:00;5.55;99.99
75899;DHT22;64576;50.460;4.866;2023-04-30T04:17:26;5.45;99.99
75899;DHT22;64576;50.460;4.866;2023-04-30T04:19:51;5.35;99.99
75899;DHT22;64576;50.460;4.866;2023-04-30T04:22:16;5.24;99.99
75899;DHT22;64576;50.460;4.866;2023-04-30T04:24:42;5.27;99.99
75899;DHT22;64576;50.460;4.866;2023-04-30T04:27:07;5.36;99.99
75899;DHT22;64576;50.460;4.866;2023-04-30T04:29:33;5.56;99.99
75899;DHT22;64576;50.460;4.866;2023-04-30T04:31:58;5.66;99.99
75899;DHT22;64576;50.460;4.866;2023-04-30T04:34:28;5.70;99.99
75899;DHT22;64576;50.460;4.866;2023-04-30T04:36:54;5.62;99.99
75899;DHT22;64576;50.460;4.866;2023-04-30T04:39:19;5.73;99.99
75899;DHT22;64576;50.460;4.866;2023-04-30T04:41:44;5.82;99.99
75899;DHT22;64576;50.460;4.866;2023-04-30T04:44:10;5.86;99.99
75899;DHT22;64576;50.460;4.866;2023-04-30T04:46:35;5.90;99.99
75899;DHT22;64576;50.460;4.866;2023-04-30T04:49:06;6.00;99.99
75899;DHT22;64576;50.460;4.866;2023-04-30T04:51:32;6.04;99.99
75899;DHT22;64576;50.460;4.866;2023-04-30T04:53:57;6.03;99.99
75899;DHT22;64576;50.460;4.866;2023-04-30T04:56:23;6.09;99.99
75899;DHT22;64576;50.460;4.866;2023-04-30T04:58:48;6.32;99.99
75899;DHT22;64576;50.460;4.866;2023-04-30T05:01:14;6.53;99.99
75899;DHT22;64576;50.460;4.866;2023-04-30T05:03:39;6.69;99.99
75899;DHT22;64576;50.460;4.866;2023-04-30T05:06:05;6.90;99.99
75899;DHT22;64576;50.460;4.866;2023-04-30T05:08:30;6.93;99.92
75899;DHT22;64576;50.460;4.866;2023-04-30T05:10:56;6.97;99.41
75899;DHT22;64576;50.460;4.866;2023-04-30T05:13:22;7.21;98.71
75899;DHT22;64576;50.460;4.866;2023-04-30T05:15:51;7.38;97.97
75899;DHT22;64576;50.460;4.866;2023-04-30T05:18:17;7.87;98.18
75899;DHT22;64576;50.460;4.866;2023-04-30T05:20:43;7.86;97.41
75899;DHT22;64576;50.460;4.866;2023-04-30T05:23:08;7.08;97.17
75899;DHT22;64576;50.460;4.866;2023-04-30T05:25:34;6.99;97.64
75899;DHT22;64576;50.460;4.866;2023-04-30T05:28:00;7.48;96.38
75899;DHT22;64576;50.460;4.866;2023-04-30T05:30:25;7.96;95.64
75899;DHT22;64576;50.460;4.866;2023-04-30T05:32:50;8.08;94.12
75899;DHT22;64576;50.460;4.866;2023-04-30T05:35:17;8.37;93.09
75899;DHT22;64576;50.460;4.866;2023-04-30T05:37:43;8.72;93.11
75899;DHT22;64576;50.460;4.866;2023-04-30T05:40:08;9.11;92.82
75899;DHT22;64576;50.460;4.866;2023-04-30T05:42:34;9.03;90.06
75899;DHT22;64576;50.460;4.866;2023-04-30T05:45:01;9.00;90.47
75899;DHT22;64576;50.460;4.866;2023-04-30T05:47:26;9.20;90.80
75899;DHT22;64576;50.460;4.866;2023-04-30T05:49:52;9.59;90.83
75899;DHT22;64576;50.460;4.866;2023-04-30T05:52:17;9.97;88.72
75899;DHT22;64576;50.460;4.866;2023-04-30T05:54:42;10.40;90.74
75899;DHT22;64576;50.460;4.866;2023-04-30T05:57:08;10.17;87.99
75899;DHT22;64576;50.460;4.866;2023-04-30T05:59:33;10.10;87.01
75899;DHT22;64576;50.460;4.866;2023-04-30T06:01:59;10.30;87.50
75899;DHT22;64576;50.460;4.866;2023-04-30T06:04:24;10.45;88.09
75899;DHT22;64576;50.460;4.866;2023-04-30T06:06:50;10.54;85.03
75899;DHT22;64576;50.460;4.866;2023-04-30T06:09:15;10.95;85.06
75899;DHT22;64576;50.460;4.866;2023-04-30T06:11:40;11.23;85.32
75899;DHT22;64576;50.460;4.866;2023-04-30T06:14:06;11.57;84.41
75899;DHT22;64576;50.460;4.866;2023-04-30T06:16:31;12.02;85.29
75899;DHT22;64576;50.460;4.866;2023-04-30T06:18:57;12.30;84.32
75899;DHT22;64576;50.460;4.866;2023-04-30T06:21:22;12.17;81.76
75899;DHT22;64576;50.460;4.866;2023-04-30T06:23:51;12.47;80.98
75899;DHT22;64576;50.460;4.866;2023-04-30T06:26:18;12.67;81.44
75899;DHT22;64576;50.460;4.866;2023-04-30T06:28:43;12.34;77.95
75899;DHT22;64576;50.460;4.866;2023-04-30T06:31:09;12.93;78.35
75899;DHT22;64576;50.460;4.866;2023-04-30T06:33:34;12.38;76.90
75899;DHT22;64576;50.460;4.866;2023-04-30T06:36:00;12.37;78.96
75899;DHT22;64576;50.460;4.866;2023-04-30T06:38:25;13.12;75.84
75899;DHT22;64576;50.460;4.866;2023-04-30T06:40:51;13.17;75.05
75899;DHT22;64576;50.460;4.866;2023-04-30T06:43:16;13.84;74.49
75899;DHT22;64576;50.460;4.866;2023-04-30T06:45:42;13.82;73.89
75899;DHT22;64576;50.460;4.866;2023-04-30T06:48:07;13.60;72.77
75899;DHT22;64576;50.460;4.866;2023-04-30T06:50:33;13.60;72.93
75899;DHT22;64576;50.460;4.866;2023-04-30T06:52:58;13.10;73.73
75899;DHT22;64576;50.460;4.866;2023-04-30T06:55:24;13.20;74.05
75899;DHT22;64576;50.460;4.866;2023-04-30T06:57:49;13.42;74.35
75899;DHT22;64576;50.460;4.866;2023-04-30T07:00:14;13.16;74.81
75899;DHT22;64576;50.460;4.866;2023-04-30T07:02:40;13.57;73.31
75899;DHT22;64576;50.460;4.866;2023-04-30T07:05:06;14.12;72.30
75899;DHT22;64576;50.460;4.866;2023-04-30T07:07:32;14.48;70.84
75899;DHT22;64576;50.460;4.866;2023-04-30T07:09:57;14.23;70.97
75899;DHT22;64576;50.460;4.866;2023-04-30T07:12:23;14.36;70.68
75899;DHT22;64576;50.460;4.866;2023-04-30T07:14:48;13.98;71.98
75899;DHT22;64576;50.460;4.866;2023-04-30T07:17:14;14.30;71.29
75899;DHT22;64576;50.460;4.866;2023-04-30T07:19:39;14.28;71.17
75899;DHT22;64576;50.460;4.866;2023-04-30T07:22:05;13.99;71.58
75899;DHT22;64576;50.460;4.866;2023-04-30T07:24:31;14.28;71.95
75899;DHT22;64576;50.460;4.866;2023-04-30T07:26:56;15.09;70.72
75899;DHT22;64576;50.460;4.866;2023-04-30T07:29:23;15.71;67.74
75899;DHT22;64576;50.460;4.866;2023-04-30T07:31:49;16.21;67.68
75899;DHT22;64576;50.460;4.866;2023-04-30T07:34:15;15.84;66.45
75899;DHT22;64576;50.460;4.866;2023-04-30T07:36:40;16.05;66.01
75899;DHT22;64576;50.460;4.866;2023-04-30T07:39:05;16.95;65.21
75899;DHT22;64576;50.460;4.866;2023-04-30T07:41:32;16.73;63.89
75899;DHT22;64576;50.460;4.866;2023-04-30T07:43:57;16.79;65.41
75899;DHT22;64576;50.460;4.866;2023-04-30T07:46:24;17.11;64.21
75899;DHT22;64576;50.460;4.866;2023-04-30T07:48:49;17.76;63.56
75899;DHT22;64576;50.460;4.866;2023-04-30T07:51:15;17.40;60.98
75899;DHT22;64576;50.460;4.866;2023-04-30T07:53:40;16.74;63.61
75899;DHT22;64576;50.460;4.866;2023-04-30T07:56:06;16.50;64.26
75899;DHT22;64576;50.460;4.866;2023-04-30T07:58:32;16.92;61.42
75899;DHT22;64576;50.460;4.866;2023-04-30T08:00:57;17.81;62.91
75899;DHT22;64576;50.460;4.866;2023-04-30T08:03:23;17.46;61.50
75899;DHT22;64576;50.460;4.866;2023-04-30T08:05:48;16.12;63.70
75899;DHT22;64576;50.460;4.866;2023-04-30T08:08:14;16.01;64.72
75899;DHT22;64576;50.460;4.866;2023-04-30T08:10:39;16.26;65.92
75899;DHT22;64576;50.460;4.866;2023-04-30T08:13:06;17.03;63.56
75899;DHT22;64576;50.460;4.866;2023-04-30T08:15:32;17.14;61.78
75899;DHT22;64576;50.460;4.866;2023-04-30T08:17:58;16.84;62.79
75899;DHT22;64576;50.460;4.866;2023-04-30T08:20:23;17.04;63.23
75899;DHT22;64576;50.460;4.866;2023-04-30T08:22:49;17.50;61.57
75899;DHT22;64576;50.460;4.866;2023-04-30T08:25:15;18.18;59.53
75899;DHT22;64576;50.460;4.866;2023-04-30T08:27:40;18.66;58.93
75899;DHT22;64576;50.460;4.866;2023-04-30T08:30:07;19.07;58.63
75899;DHT22;64576;50.460;4.866;2023-04-30T08:32:34;19.61;57.21
75899;DHT22;64576;50.460;4.866;2023-04-30T08:35:05;18.80;56.78
75899;DHT22;64576;50.460;4.866;2023-04-30T08:37:31;19.92;55.02
75899;DHT22;64576;50.460;4.866;2023-04-30T08:39:57;20.32;54.76
75899;DHT22;64576;50.460;4.866;2023-04-30T08:42:30;18.89;56.79
75899;DHT22;64576;50.460;4.866;2023-04-30T08:44:57;18.99;57.22
75899;DHT22;64576;50.460;4.866;2023-04-30T08:47:24;19.22;58.34
75899;DHT22;64576;50.460;4.866;2023-04-30T08:49:50;20.93;53.60
75899;DHT22;64576;50.460;4.866;2023-04-30T08:52:18;20.28;55.69
75899;DHT22;64576;50.460;4.866;2023-04-30T08:54:43;21.45;52.88
75899;DHT22;64576;50.460;4.866;2023-04-30T08:57:09;20.09;53.69
75899;DHT22;64576;50.460;4.866;2023-04-30T08:59:35;19.08;54.41
75899;DHT22;64576;50.460;4.866;2023-04-30T09:02:00;19.45;54.18
75899;DHT22;64576;50.460;4.866;2023-04-30T09:04:26;18.84;55.49
75899;DHT22;64576;50.460;4.866;2023-04-30T09:06:52;18.70;55.46
75899;DHT22;64576;50.460;4.866;2023-04-30T09:09:29;19.18;53.06
75899;DHT22;64576;50.460;4.866;2023-04-30T09:12:15;18.99;55.02
75899;DHT22;64576;50.460;4.866;2023-04-30T09:15:05;19.34;53.61
75899;DHT22;64576;50.460;4.866;2023-04-30T09:17:34;20.44;52.96
75899;DHT22;64576;50.460;4.866;2023-04-30T09:20:10;19.24;51.58
75899;DHT22;64576;50.460;4.866;2023-04-30T09:22:38;18.55;54.16
75899;DHT22;64576;50.460;4.866;2023-04-30T09:25:04;18.86;52.71
75899;DHT22;64576;50.460;4.866;2023-04-30T09:27:30;18.39;52.98
75899;DHT22;64576;50.460;4.866;2023-04-30T09:29:55;19.21;51.24
75899;DHT22;64576;50.460;4.866;2023-04-30T09:32:21;20.24;50.08
75899;DHT22;64576;50.460;4.866;2023-04-30T09:34:46;20.41;50.79
75899;DHT22;64576;50.460;4.866;2023-04-30T09:37:12;19.72;49.59
75899;DHT22;64576;50.460;4.866;2023-04-30T09:39:48;20.72;47.63
75899;DHT22;64576;50.460;4.866;2023-04-30T09:42:14;19.82;49.23
75899;DHT22;64576;50.460;4.866;2023-04-30T09:44:40;19.41;50.20
75899;DHT22;64576;50.460;4.866;2023-04-30T09:47:16;21.02;49.11
75899;DHT22;64576;50.460;4.866;2023-04-30T09:49:46;20.35;46.40
75899;DHT22;64576;50.460;4.866;2023-04-30T09:52:14;20.85;46.26
75899;DHT22;64576;50.460;4.866;2023-04-30T09:54:40;20.73;47.61
75899;DHT22;64576;50.460;4.866;2023-04-30T09:57:09;20.71;45.59
75899;DHT22;64576;50.460;4.866;2023-04-30T09:59:35;21.24;46.65
75899;DHT22;64576;50.460;4.866;2023-04-30T10:02:03;20.51;45.71
75899;DHT22;64576;50.460;4.866;2023-04-30T10:04:33;21.96;44.60
75899;DHT22;64576;50.460;4.866;2023-04-30T10:07:03;21.16;46.14
75899;DHT22;64576;50.460;4.866;2023-04-30T10:09:39;20.06;45.90
75899;DHT22;64576;50.460;4.866;2023-04-30T10:12:08;20.06;47.19
75899;DHT22;64576;50.460;4.866;2023-04-30T10:14:36;19.56;47.90
75899;DHT22;64576;50.460;4.866;2023-04-30T10:17:12;20.55;46.57
75899;DHT22;64576;50.460;4.866;2023-04-30T10:19:39;21.89;44.02
75899;DHT22;64576;50.460;4.866;2023-04-30T10:22:08;21.57;41.73
75899;DHT22;64576;50.460;4.866;2023-04-30T10:24:35;22.47;42.68
75899;DHT22;64576;50.460;4.866;2023-04-30T10:27:01;22.21;42.43
75899;DHT22;64576;50.460;4.866;2023-04-30T10:29:27;21.50;42.73
75899;DHT22;64576;50.460;4.866;2023-04-30T10:31:53;21.33;42.47
75899;DHT22;64576;50.460;4.866;2023-04-30T10:34:53;21.55;43.18
75899;DHT22;64576;50.460;4.866;2023-04-30T10:37:26;22.21;41.14
75899;DHT22;64576;50.460;4.866;2023-04-30T10:39:53;22.48;42.66
75899;DHT22;64576;50.460;4.866;2023-04-30T10:42:19;21.24;43.43
75899;DHT22;64576;50.460;4.866;2023-04-30T10:44:45;20.95;44.05
75899;DHT22;64576;50.460;4.866;2023-04-30T10:47:11;21.61;44.15
75899;DHT22;64576;50.460;4.866;2023-04-30T10:49:36;22.44;43.18
75899;DHT22;64576;50.460;4.866;2023-04-30T10:52:03;23.39;39.58
75899;DHT22;64576;50.460;4.866;2023-04-30T10:54:33;23.54;40.87
75899;DHT22;64576;50.460;4.866;2023-04-30T10:57:12;21.57;43.49
75899;DHT22;64576;50.460;4.866;2023-04-30T11:02:45;21.38;43.14
75899;DHT22;64576;50.460;4.866;2023-04-30T11:05:15;21.06;45.14
75899;DHT22;64576;50.460;4.866;2023-04-30T11:08:00;23.58;40.68
75899;DHT22;64576;50.460;4.866;2023-04-30T11:10:32;22.65;41.16
75899;DHT22;64576;50.460;4.866;2023-04-30T11:13:03;22.21;42.18
75899;DHT22;64576;50.460;4.866;2023-04-30T11:15:39;21.61;44.59
75899;DHT22;64576;50.460;4.866;2023-04-30T11:18:06;22.09;42.71
75899;DHT22;64576;50.460;4.866;2023-04-30T11:20:32;23.30;43.17
75899;DHT22;64576;50.460;4.866;2023-04-30T11:25:44;20.90;45.01
75899;DHT22;64576;50.460;4.866;2023-04-30T11:30:39;23.05;38.77
75899;DHT22;64576;50.460;4.866;2023-04-30T11:33:05;22.48;42.20
75899;DHT22;64576;50.460;4.866;2023-04-30T11:35:32;23.94;40.34
75899;DHT22;64576;50.460;4.866;2023-04-30T11:37:58;24.44;40.91
75899;DHT22;64576;50.460;4.866;2023-04-30T11:40:25;22.48;42.23
75899;DHT22;64576;50.460;4.866;2023-04-30T11:42:51;22.82;42.12
75899;DHT22;64576;50.460;4.866;2023-04-30T11:45:16;21.41;43.27
75899;DHT22;64576;50.460;4.866;2023-04-30T11:47:51;21.82;44.19
75899;DHT22;64576;50.460;4.866;2023-04-30T11:50:22;23.22;43.37
75899;DHT22;64576;50.460;4.866;2023-04-30T11:52:55;20.83;44.17
75899;DHT22;64576;50.460;4.866;2023-04-30T11:55:23;20.67;44.80
75899;DHT22;64576;50.460;4.866;2023-04-30T11:57:53;20.72;45.33
75899;DHT22;64576;50.460;4.866;2023-04-30T12:00:24;22.13;43.19
75899;DHT22;64576;50.460;4.866;2023-04-30T12:02:49;22.71;42.14
75899;DHT22;64576;50.460;4.866;2023-04-30T12:05:16;22.51;40.93
75899;DHT22;64576;50.460;4.866;2023-04-30T12:07:50;20.71;44.45
75899;DHT22;64576;50.460;4.866;2023-04-30T12:10:18;20.89;44.66
75899;DHT22;64576;50.460;4.866;2023-04-30T12:12:43;19.90;47.35
75899;DHT22;64576;50.460;4.866;2023-04-30T12:15:20;19.34;48.76
75899;DHT22;64576;50.460;4.866;2023-04-30T12:17:52;20.64;46.30
75899;DHT22;64576;50.460;4.866;2023-04-30T12:20:19;22.82;42.41
75899;DHT22;64576;50.460;4.866;2023-04-30T12:22:46;23.55;40.43
75899;DHT22;64576;50.460;4.866;2023-04-30T12:25:17;22.51;41.15
75899;DHT22;64576;50.460;4.866;2023-04-30T12:27:51;22.94;40.77
75899;DHT22;64576;50.460;4.866;2023-04-30T12:30:24;22.06;41.95
75899;DHT22;64576;50.460;4.866;2023-04-30T12:32:52;20.03;46.29
75899;DHT22;64576;50.460;4.866;2023-04-30T12:35:20;20.23;47.23
75899;DHT22;64576;50.460;4.866;2023-04-30T12:37:48;21.14;44.07
75899;DHT22;64576;50.460;4.866;2023-04-30T12:40:20;22.32;41.68
75899;DHT22;64576;50.460;4.866;2023-04-30T12:42:46;21.81;43.54
75899;DHT22;64576;50.460;4.866;2023-04-30T12:45:37;20.09;45.00
75899;DHT22;64576;50.460;4.866;2023-04-30T12:47:58;19.90;46.59
75899;DHT22;64576;50.460;4.866;2023-04-30T12:50:24;20.28;45.73
75899;DHT22;64576;50.460;4.866;2023-04-30T12:52:49;20.42;45.20
75899;DHT22;64576;50.460;4.866;2023-04-30T12:55:19;20.85;44.77
75899;DHT22;64576;50.460;4.866;2023-04-30T13:00:49;23.16;39.57
75899;DHT22;64576;50.460;4.866;2023-04-30T13:03:18;22.65;41.30
75899;DHT22;64576;50.460;4.866;2023-04-30T13:05:47;22.06;41.98
75899;DHT22;64576;50.460;4.866;2023-04-30T13:08:13;22.43;41.01
75899;DHT22;64576;50.460;4.866;2023-04-30T13:10:38;22.03;41.22
75899;DHT22;64576;50.460;4.866;2023-04-30T13:13:05;22.98;41.43
75899;DHT22;64576;50.460;4.866;2023-04-30T13:15:30;22.96;42.58
75899;DHT22;64576;50.460;4.866;2023-04-30T13:17:56;21.57;43.63
75899;DHT22;64576;50.460;4.866;2023-04-30T13:20:22;20.41;43.85
75899;DHT22;64576;50.460;4.866;2023-04-30T13:22:49;20.23;44.82
75899;DHT22;64576;50.460;4.866;2023-04-30T13:25:15;19.96;44.71
75899;DHT22;64576;50.460;4.866;2023-04-30T13:27:41;19.36;45.01
75899;DHT22;64576;50.460;4.866;2023-04-30T13:30:07;19.52;46.26
75899;DHT22;64576;50.460;4.866;2023-04-30T13:32:32;18.93;47.42
75899;DHT22;64576;50.460;4.866;2023-04-30T13:34:58;21.02;44.32
75899;DHT22;64576;50.460;4.866;2023-04-30T13:37:23;22.17;41.05
75899;DHT22;64576;50.460;4.866;2023-04-30T13:39:49;21.85;41.98
75899;DHT22;64576;50.460;4.866;2023-04-30T13:42:15;20.80;42.91
75899;DHT22;64576;50.460;4.866;2023-04-30T13:44:41;21.06;43.45
75899;DHT22;64576;50.460;4.866;2023-04-30T13:47:09;20.65;44.28
75899;DHT22;64576;50.460;4.866;2023-04-30T13:49:35;19.59;46.24
75899;DHT22;64576;50.460;4.866;2023-04-30T13:52:04;18.97;46.49
75899;DHT22;64576;50.460;4.866;2023-04-30T13:54:29;19.08;48.00
75899;DHT22;64576;50.460;4.866;2023-04-30T13:56:55;20.17;46.13
75899;DHT22;64576;50.460;4.866;2023-04-30T13:59:21;22.23;42.77
75899;DHT22;64576;50.460;4.866;2023-04-30T14:01:46;21.77;42.54
75899;DHT22;64576;50.460;4.866;2023-04-30T14:04:11;24.28;39.25
75899;DHT22;64576;50.460;4.866;2023-04-30T14:06:39;23.58;39.62
75899;DHT22;64576;50.460;4.866;2023-04-30T14:09:04;22.91;40.94
75899;DHT22;64576;50.460;4.866;2023-04-30T14:11:31;19.80;45.55
75899;DHT22;64576;50.460;4.866;2023-04-30T14:13:56;18.83;47.45
75899;DHT22;64576;50.460;4.866;2023-04-30T14:16:22;19.65;48.03
75899;DHT22;64576;50.460;4.866;2023-04-30T14:18:47;19.18;48.19
75899;DHT22;64576;50.460;4.866;2023-04-30T14:21:14;19.32;48.60
75899;DHT22;64576;50.460;4.866;2023-04-30T14:23:39;18.99;48.06
75899;DHT22;64576;50.460;4.866;2023-04-30T14:26:05;19.03;47.28
75899;DHT22;64576;50.460;4.866;2023-04-30T14:28:31;18.90;48.80
75899;DHT22;64576;50.460;4.866;2023-04-30T14:30:57;18.83;47.16
75899;DHT22;64576;50.460;4.866;2023-04-30T14:33:22;18.96;48.77
75899;DHT22;64576;50.460;4.866;2023-04-30T14:35:48;19.36;47.23
75899;DHT22;64576;50.460;4.866;2023-04-30T14:38:14;19.18;46.02
75899;DHT22;64576;50.460;4.866;2023-04-30T14:40:39;19.00;47.36
75899;DHT22;64576;50.460;4.866;2023-04-30T14:43:05;19.14;46.83
75899;DHT22;64576;50.460;4.866;2023-04-30T14:45:33;19.75;46.68
75899;DHT22;64576;50.460;4.866;2023-04-30T14:47:59;20.00;45.71
75899;DHT22;64576;50.460;4.866;2023-04-30T14:50:25;19.93;46.97
75899;DHT22;64576;50.460;4.866;2023-04-30T14:52:51;19.72;46.81
75899;DHT22;64576;50.460;4.866;2023-04-30T14:55:17;18.57;47.75
75899;DHT22;64576;50.460;4.866;2023-04-30T14:57:42;18.48;48.01
75899;DHT22;64576;50.460;4.866;2023-04-30T15:00:08;18.63;48.13
75899;DHT22;64576;50.460;4.866;2023-04-30T15:02:34;18.44;47.90
75899;DHT22;64576;50.460;4.866;2023-04-30T15:05:01;18.76;47.20
75899;DHT22;64576;50.460;4.866;2023-04-30T15:07:28;19.38;46.84
75899;DHT22;64576;50.460;4.866;2023-04-30T15:09:53;19.08;46.90
75899;DHT22;64576;50.460;4.866;2023-04-30T15:12:18;19.44;47.11
75899;DHT22;64576;50.460;4.866;2023-04-30T15:14:44;20.72;44.12
75899;DHT22;64576;50.460;4.866;2023-04-30T15:17:09;18.80;46.94
75899;DHT22;64576;50.460;4.866;2023-04-30T15:19:36;18.52;47.68
75899;DHT22;64576;50.460;4.866;2023-04-30T15:22:02;19.24;46.40
75899;DHT22;64576;50.460;4.866;2023-04-30T15:24:27;18.84;47.44
75899;DHT22;64576;50.460;4.866;2023-04-30T15:26:52;18.22;47.55
75899;DHT22;64576;50.460;4.866;2023-04-30T15:29:19;18.44;49.07
75899;DHT22;64576;50.460;4.866;2023-04-30T15:31:44;18.48;48.29
75899;DHT22;64576;50.460;4.866;2023-04-30T15:34:10;19.03;48.19
75899;DHT22;64576;50.460;4.866;2023-04-30T15:36:36;19.58;46.75
75899;DHT22;64576;50.460;4.866;2023-04-30T15:39:01;18.90;47.47
75899;DHT22;64576;50.460;4.866;2023-04-30T15:41:27;19.86;47.08
75899;DHT22;64576;50.460;4.866;2023-04-30T15:43:52;19.15;46.74
75899;DHT22;64576;50.460;4.866;2023-04-30T15:46:18;18.82;47.75
75899;DHT22;64576;50.460;4.866;2023-04-30T15:48:43;18.51;48.12
75899;DHT22;64576;50.460;4.866;2023-04-30T15:51:09;17.96;49.04
75899;DHT22;64576;50.460;4.866;2023-04-30T15:53:34;18.65;47.76
75899;DHT22;64576;50.460;4.866;2023-04-30T15:56:00;18.73;48.34
75899;DHT22;64576;50.460;4.866;2023-04-30T15:58:25;18.92;47.96
75899;DHT22;64576;50.460;4.866;2023-04-30T16:00:51;19.04;48.51
75899;DHT22;64576;50.460;4.866;2023-04-30T16:03:16;19.20;48.05